Time;durP1;ratioP1;P1;durP2;ratioP2;P2;SDS_P1;SDS_P2;PMS_P1;PMS_P2;Temp;Humidity;BMP_temperature;BMP_pressure;BME280_temperature;BME280_humidity;BME280_pressure;Samples;Min_cycle;Max_cycle;Signal;HPM_P1;HPM_P2
2021/09/09 00:00:32;;;;;;;9.30;8.38;;;;;;;;;;5089037;28;20028;-75
2021/09/09 00:02:59;;;;;;;9.57;8.77;;;;;;;;;;5070406;28;20506;-70
2021/09/09 00:05:25;;;;;;;9.75;8.85;;;;;;;;;;5091354;28;20024;-72
2021/09/09 00:07:51;;;;;;;9.30;8.48;;;;;;;;;;5088054;28;20025;-74
2021/09/09 00:10:18;;;;;;;9.43;8.63;;;;;;;;;;5091445;28;20048;-76
2021/09/09 00:12:44;;;;;;;10.10;9.10;;;;;;;;;;5090633;28;20023;-76
2021/09/09 00:15:11;;;;;;;9.60;8.70;;;;;;;;;;5088528;28;20118;-74
2021/09/09 00:17:39;;;;;;;9.63;8.45;;;;;;;;;;5088874;28;20447;-71
2021/09/09 00:20:05;;;;;;;9.55;8.65;;;;;;;;;;5088506;28;20061;-70
2021/09/09 00:22:32;;;;;;;10.15;9.25;;;;;;;;;;5087550;28;20773;-71
2021/09/09 00:24:58;;;;;;;10.93;9.30;;;;;;;;;;5090517;28;20832;-72
2021/09/09 00:27:25;;;;;;;10.35;9.35;;;;;;;;;;5095860;28;20539;-74
2021/09/09 00:29:51;;;;;;;11.55;9.60;;;;;;;;;;5091603;28;20027;-71
2021/09/09 00:32:17;;;;;;;10.48;9.40;;;;;;;;;;5092959;28;20023;-69
2021/09/09 00:34:43;;;;;;;9.77;8.82;;;;;;;;;;5089878;28;20686;-75
2021/09/09 00:37:09;;;;;;;10.38;9.38;;;;;;;;;;5081732;28;20623;-73
2021/09/09 00:39:35;;;;;;;10.43;9.43;;;;;;;;;;5093683;28;20032;-76
2021/09/09 00:42:01;;;;;;;9.70;8.70;;;;;;;;;;5077241;28;20460;-75
2021/09/09 00:44:28;;;;;;;9.80;8.90;;;;;;;;;;5091367;28;20977;-70
2021/09/09 00:46:58;;;;;;;8.98;8.13;;;;;;;;;;5094902;28;20016;-75
2021/09/09 00:49:24;;;;;;;10.48;9.30;;;;;;;;;;5092463;28;20475;-74
2021/09/09 00:51:51;;;;;;;9.45;8.55;;;;;;;;;;5097025;28;20462;-70
2021/09/09 00:54:17;;;;;;;9.68;8.68;;;;;;;;;;5091430;28;20020;-73
2021/09/09 00:56:43;;;;;;;10.23;9.18;;;;;;;;;;5094936;28;20028;-71
2021/09/09 00:59:09;;;;;;;9.38;8.48;;;;;;;;;;5091191;28;20031;-75
2021/09/09 01:01:35;;;;;;;10.02;9.02;;;;;;;;;;5090602;28;20048;-73
2021/09/09 01:04:01;;;;;;;9.75;8.65;;;;;;;;;;5090952;28;20024;-74
2021/09/09 01:06:28;;;;;;;10.50;8.77;;;;;;;;;;5090748;28;20038;-69
2021/09/09 01:08:54;;;;;;;9.57;8.60;;;;;;;;;;5094968;28;20058;-70
2021/09/09 01:11:20;;;;;;;9.40;8.45;;;;;;;;;;5093247;28;20040;-73
2021/09/09 01:13:50;;;;;;;9.40;8.43;;;;;;;;;;5093135;28;20321;-70
2021/09/09 01:16:16;;;;;;;14.50;9.05;;;;;;;;;;5089448;28;20031;-73
2021/09/09 01:18:43;;;;;;;10.32;9.25;;;;;;;;;;5091880;28;20043;-74
2021/09/09 01:21:09;;;;;;;10.95;9.95;;;;;;;;;;5092467;28;20028;-71
2021/09/09 01:23:36;;;;;;;10.23;9.27;;;;;;;;;;5092106;28;20032;-75
2021/09/09 01:26:04;;;;;;;10.15;9.15;;;;;;;;;;5090676;28;20511;-71
2021/09/09 01:28:30;;;;;;;9.73;8.82;;;;;;;;;;5092251;28;20036;-71
2021/09/09 01:30:56;;;;;;;10.80;9.23;;;;;;;;;;5091277;28;20035;-75
2021/09/09 01:33:22;;;;;;;10.60;9.55;;;;;;;;;;5091122;28;20819;-69
2021/09/09 01:35:49;;;;;;;10.15;9.35;;;;;;;;;;5074805;28;20412;-70
2021/09/09 01:38:22;;;;;;;10.07;8.85;;;;;;;;;;5092340;28;20146;-74
2021/09/09 01:40:48;;;;;;;9.35;8.45;;;;;;;;;;5091205;28;20096;-70
2021/09/09 01:43:14;;;;;;;10.35;9.25;;;;;;;;;;5092345;28;20119;-75
2021/09/09 01:45:40;;;;;;;9.30;8.35;;;;;;;;;;5088331;28;20556;-75
2021/09/09 01:48:07;;;;;;;9.35;8.45;;;;;;;;;;5089369;28;20093;-69
2021/09/09 01:50:33;;;;;;;9.63;8.75;;;;;;;;;;5093464;28;20020;-69
2021/09/09 01:52:59;;;;;;;9.57;8.68;;;;;;;;;;5087416;28;20391;-73
2021/09/09 01:55:25;;;;;;;9.75;8.77;;;;;;;;;;5095682;28;20103;-72
2021/09/09 01:57:51;;;;;;;9.15;8.35;;;;;;;;;;5088934;28;20040;-75
2021/09/09 02:00:17;;;;;;;9.20;8.27;;;;;;;;;;5099559;27;20067;-70
2021/09/09 02:02:44;;;;;;;9.60;8.73;;;;;;;;;;5089433;27;20101;-75
2021/09/09 02:05:12;;;;;;;9.80;8.82;;;;;;;;;;5095097;28;20034;-75
2021/09/09 02:07:38;;;;;;;10.30;9.05;;;;;;;;;;5096960;28;20076;-74
2021/09/09 02:10:05;;;;;;;10.38;9.38;;;;;;;;;;5094262;28;20048;-76
2021/09/09 02:12:31;;;;;;;10.00;9.02;;;;;;;;;;5090215;28;20024;-74
2021/09/09 02:14:57;;;;;;;10.00;9.10;;;;;;;;;;5091578;28;20026;-76
2021/09/09 02:17:23;;;;;;;10.35;9.25;;;;;;;;;;5093926;28;20468;-74
2021/09/09 02:19:50;;;;;;;10.82;9.82;;;;;;;;;;5091031;28;20036;-74
2021/09/09 02:22:16;;;;;;;10.77;9.68;;;;;;;;;;5091478;27;20016;-71
2021/09/09 02:24:45;;;;;;;10.93;9.80;;;;;;;;;;5092299;28;20035;-75
2021/09/09 02:27:13;;;;;;;10.88;9.88;;;;;;;;;;5089654;28;20024;-72
2021/09/09 02:29:39;;;;;;;10.27;9.48;;;;;;;;;;5089205;28;20028;-72
2021/09/09 02:32:05;;;;;;;10.52;9.52;;;;;;;;;;5089589;28;20057;-70
2021/09/09 02:34:31;;;;;;;10.57;9.43;;;;;;;;;;5088280;28;20094;-70
2021/09/09 02:36:58;;;;;;;10.93;9.85;;;;;;;;;;5094062;28;20015;-71
2021/09/09 02:39:24;;;;;;;9.73;8.80;;;;;;;;;;5092914;28;20036;-74
2021/09/09 02:41:50;;;;;;;10.63;9.43;;;;;;;;;;5088710;28;20016;-72
2021/09/09 02:44:16;;;;;;;9.80;8.90;;;;;;;;;;5089108;28;20035;-72
2021/09/09 02:46:42;;;;;;;10.60;9.55;;;;;;;;;;5087244;28;20093;-70
2021/09/09 02:49:08;;;;;;;10.40;9.38;;;;;;;;;;5088705;28;20032;-75
2021/09/09 02:51:34;;;;;;;10.68;9.68;;;;;;;;;;5070857;28;20024;-76
2021/09/09 02:54:00;;;;;;;10.50;9.60;;;;;;;;;;5091121;28;20021;-74
2021/09/09 02:56:27;;;;;;;10.38;9.48;;;;;;;;;;5088320;28;20032;-71
2021/09/09 02:58:53;;;;;;;11.55;9.63;;;;;;;;;;5088261;28;20049;-75
2021/09/09 03:01:19;;;;;;;10.60;9.52;;;;;;;;;;5089556;28;20020;-75
2021/09/09 03:03:45;;;;;;;10.40;9.40;;;;;;;;;;5085018;28;20820;-74
2021/09/09 03:06:12;;;;;;;11.10;9.93;;;;;;;;;;5068316;28;20270;-72
2021/09/09 03:08:38;;;;;;;10.48;9.43;;;;;;;;;;5087336;28;20492;-74
2021/09/09 03:11:04;;;;;;;10.32;9.32;;;;;;;;;;5086275;28;20751;-72
2021/09/09 03:13:30;;;;;;;10.20;9.20;;;;;;;;;;5088983;28;20047;-74
2021/09/09 03:15:56;;;;;;;10.70;9.60;;;;;;;;;;5086868;28;20085;-69
2021/09/09 03:18:22;;;;;;;10.45;9.27;;;;;;;;;;5089471;28;20031;-71
2021/09/09 03:20:49;;;;;;;9.50;8.63;;;;;;;;;;5084876;28;20027;-73
2021/09/09 03:23:15;;;;;;;10.32;9.07;;;;;;;;;;5088777;28;20876;-71
2021/09/09 03:25:41;;;;;;;10.23;9.32;;;;;;;;;;5084395;28;20028;-73
2021/09/09 03:28:07;;;;;;;9.70;8.80;;;;;;;;;;5089424;28;20038;-74
2021/09/09 03:30:33;;;;;;;9.88;8.98;;;;;;;;;;5086193;28;20032;-72
2021/09/09 03:32:59;;;;;;;10.25;9.32;;;;;;;;;;5069725;28;20032;-71
2021/09/09 03:35:26;;;;;;;9.70;8.80;;;;;;;;;;5085313;28;20024;-71
2021/09/09 03:37:52;;;;;;;10.10;9.20;;;;;;;;;;5086006;28;20074;-76
2021/09/09 03:40:18;;;;;;;9.60;8.65;;;;;;;;;;5089787;28;20020;-70
2021/09/09 03:42:44;;;;;;;9.82;8.82;;;;;;;;;;5085553;28;20028;-72
2021/09/09 03:45:11;;;;;;;10.00;9.10;;;;;;;;;;5090469;28;20035;-70
2021/09/09 03:47:37;;;;;;;9.68;8.68;;;;;;;;;;5070786;28;20084;-71
2021/09/09 03:50:03;;;;;;;9.93;9.02;;;;;;;;;;5088737;28;20028;-74
2021/09/09 03:52:29;;;;;;;9.80;8.93;;;;;;;;;;5066228;28;20172;-72
2021/09/09 03:54:56;;;;;;;10.02;8.60;;;;;;;;;;5086827;28;20028;-72
2021/09/09 03:57:23;;;;;;;11.45;9.15;;;;;;;;;;5087340;28;20448;-75
2021/09/09 03:59:49;;;;;;;10.15;9.15;;;;;;;;;;5082520;28;20044;-74
2021/09/09 04:02:16;;;;;;;11.35;10.25;;;;;;;;;;5087872;28;20059;-69
2021/09/09 04:04:42;;;;;;;10.02;9.00;;;;;;;;;;5082925;28;20029;-74
2021/09/09 04:07:09;;;;;;;10.55;9.55;;;;;;;;;;5087278;28;20035;-73
2021/09/09 04:09:38;;;;;;;10.60;9.57;;;;;;;;;;5092514;28;20024;-70
2021/09/09 04:12:05;;;;;;;10.40;9.18;;;;;;;;;;5087542;28;20391;-73
2021/09/09 04:14:32;;;;;;;10.73;9.63;;;;;;;;;;5091109;28;20039;-70
2021/09/09 04:16:58;;;;;;;9.75;8.88;;;;;;;;;;5088222;28;20020;-70
2021/09/09 04:19:24;;;;;;;10.60;9.57;;;;;;;;;;5091744;28;20039;-72
2021/09/09 04:21:51;;;;;;;9.60;8.70;;;;;;;;;;5086810;28;20030;-70
2021/09/09 04:24:17;;;;;;;10.02;9.23;;;;;;;;;;5088312;28;20027;-74
2021/09/09 04:26:43;;;;;;;11.55;10.35;;;;;;;;;;5091490;28;20023;-71
2021/09/09 04:29:10;;;;;;;9.43;8.52;;;;;;;;;;5091501;28;20016;-70
2021/09/09 04:31:36;;;;;;;10.95;9.70;;;;;;;;;;5093278;28;20536;-74
2021/09/09 04:34:02;;;;;;;10.50;9.57;;;;;;;;;;5086418;28;20404;-70
2021/09/09 04:36:29;;;;;;;10.30;9.13;;;;;;;;;;5088960;28;20039;-69
2021/09/09 04:38:55;;;;;;;10.13;9.23;;;;;;;;;;5070361;28;20568;-70
2021/09/09 04:41:21;;;;;;;11.68;9.55;;;;;;;;;;5090208;28;20042;-72
2021/09/09 04:43:47;;;;;;;10.15;9.25;;;;;;;;;;5090958;28;20475;-71
2021/09/09 04:46:13;;;;;;;10.48;9.48;;;;;;;;;;5087365;28;20480;-71
2021/09/09 04:48:39;;;;;;;10.75;9.85;;;;;;;;;;5091672;28;20028;-71
2021/09/09 04:51:06;;;;;;;10.20;9.30;;;;;;;;;;5086507;28;20047;-72
2021/09/09 04:53:32;;;;;;;10.65;9.75;;;;;;;;;;5084543;28;20038;-72
2021/09/09 04:55:58;;;;;;;11.95;9.25;;;;;;;;;;5089088;28;20020;-69
2021/09/09 04:58:24;;;;;;;10.55;9.55;;;;;;;;;;5085645;28;20044;-69
2021/09/09 05:00:50;;;;;;;11.43;10.25;;;;;;;;;;5090334;28;20027;-69
2021/09/09 05:03:16;;;;;;;12.32;9.75;;;;;;;;;;5067341;28;20031;-72
2021/09/09 05:05:43;;;;;;;10.90;9.35;;;;;;;;;;5089277;28;20028;-73
2021/09/09 05:08:09;;;;;;;12.65;9.13;;;;;;;;;;5084477;28;20058;-72
2021/09/09 05:10:36;;;;;;;13.60;9.52;;;;;;;;;;5088509;28;20055;-69
2021/09/09 05:13:02;;;;;;;11.27;10.07;;;;;;;;;;5092267;28;20019;-76
2021/09/09 05:15:28;;;;;;;11.10;9.60;;;;;;;;;;5090622;27;20032;-69
2021/09/09 05:17:54;;;;;;;11.70;10.38;;;;;;;;;;5093284;28;20036;-70
2021/09/09 05:20:20;;;;;;;13.38;9.40;;;;;;;;;;5088358;28;20017;-70
2021/09/09 05:22:47;;;;;;;10.43;9.32;;;;;;;;;;5090005;28;20115;-76
2021/09/09 05:25:13;;;;;;;11.65;10.43;;;;;;;;;;5092630;28;20024;-72
2021/09/09 05:27:40;;;;;;;31.02;11.30;;;;;;;;;;5090634;28;20032;-76
2021/09/09 05:30:06;;;;;;;16.65;10.63;;;;;;;;;;5093134;28;20024;-75
2021/09/09 05:32:33;;;;;;;16.50;11.23;;;;;;;;;;5089600;28;20020;-73
2021/09/09 05:35:00;;;;;;;19.55;12.63;;;;;;;;;;5089327;28;20111;-75
2021/09/09 05:37:26;;;;;;;28.63;12.27;;;;;;;;;;5085631;28;20032;-74
2021/09/09 05:39:52;;;;;;;14.10;11.32;;;;;;;;;;5092986;28;20035;-72
2021/09/09 05:42:19;;;;;;;12.57;9.90;;;;;;;;;;5091487;28;20085;-76
2021/09/09 05:44:45;;;;;;;11.20;10.10;;;;;;;;;;5089738;28;20024;-72
2021/09/09 05:47:11;;;;;;;11.32;9.65;;;;;;;;;;5092630;28;20497;-76
2021/09/09 05:49:38;;;;;;;11.20;10.10;;;;;;;;;;5090981;28;20204;-73
2021/09/09 05:52:04;;;;;;;13.90;10.68;;;;;;;;;;5090138;28;20085;-70
2021/09/09 05:54:31;;;;;;;11.40;9.80;;;;;;;;;;5091193;28;20388;-73
2021/09/09 05:56:58;;;;;;;10.70;9.68;;;;;;;;;;5090171;28;20588;-71
2021/09/09 05:59:24;;;;;;;13.35;10.07;;;;;;;;;;5094458;28;20598;-75
2021/09/09 06:01:50;;;;;;;10.50;9.50;;;;;;;;;;5087245;28;20489;-69
2021/09/09 06:04:20;;;;;;;10.48;9.40;;;;;;;;;;5090560;28;20027;-74
2021/09/09 06:06:47;;;;;;;10.60;9.25;;;;;;;;;;5088949;28;20137;-74
2021/09/09 06:09:14;;;;;;;12.32;10.55;;;;;;;;;;5093649;28;20020;-69
2021/09/09 06:11:40;;;;;;;10.25;9.15;;;;;;;;;;5089991;28;20123;-69
2021/09/09 06:14:07;;;;;;;10.45;9.45;;;;;;;;;;5089930;28;20063;-74
2021/09/09 06:16:33;;;;;;;10.40;9.25;;;;;;;;;;5093361;28;20012;-72
2021/09/09 06:18:59;;;;;;;10.10;9.20;;;;;;;;;;5088161;28;20051;-73
2021/09/09 06:21:26;;;;;;;9.52;8.65;;;;;;;;;;5072222;28;20453;-70
2021/09/09 06:23:52;;;;;;;10.05;9.05;;;;;;;;;;5088362;28;20584;-74
2021/09/09 06:26:18;;;;;;;10.65;9.60;;;;;;;;;;5089350;28;20523;-81
2021/09/09 06:28:45;;;;;;;10.02;9.07;;;;;;;;;;5088311;28;20024;-72
2021/09/09 06:31:11;;;;;;;10.52;8.43;;;;;;;;;;5088924;28;20032;-74
2021/09/09 06:33:38;;;;;;;10.45;8.75;;;;;;;;;;5090431;28;20054;-71
2021/09/09 06:36:04;;;;;;;9.20;8.27;;;;;;;;;;5076939;28;20024;-76
2021/09/09 06:38:30;;;;;;;10.52;8.65;;;;;;;;;;5090665;28;20089;-77
2021/09/09 06:40:56;;;;;;;10.05;8.70;;;;;;;;;;5090513;28;20471;-83
2021/09/09 06:43:23;;;;;;;8.95;8.07;;;;;;;;;;5092723;28;20031;-78
2021/09/09 06:45:49;;;;;;;9.50;8.48;;;;;;;;;;5094031;28;20098;-82
2021/09/09 06:48:15;;;;;;;8.70;7.80;;;;;;;;;;5090089;28;20577;-69
2021/09/09 06:50:42;;;;;;;9.00;8.20;;;;;;;;;;5091292;28;20430;-73
2021/09/09 06:53:08;;;;;;;9.27;8.23;;;;;;;;;;5087275;28;20016;-75
2021/09/09 06:55:34;;;;;;;10.05;9.15;;;;;;;;;;5089661;28;20101;-73
2021/09/09 06:58:01;;;;;;;10.10;9.20;;;;;;;;;;5087052;28;20070;-81
2021/09/09 07:00:27;;;;;;;9.52;8.63;;;;;;;;;;5090117;28;20050;-74
2021/09/09 07:02:53;;;;;;;8.20;7.47;;;;;;;;;;5086263;28;20074;-77
2021/09/09 07:05:19;;;;;;;9.63;8.73;;;;;;;;;;5090738;28;20023;-69
2021/09/09 07:07:45;;;;;;;8.32;7.63;;;;;;;;;;5089811;28;20027;-76
2021/09/09 07:10:11;;;;;;;8.95;8.07;;;;;;;;;;5087117;28;20078;-78
2021/09/09 07:12:38;;;;;;;9.23;8.32;;;;;;;;;;5094310;27;20085;-79
2021/09/09 07:15:04;;;;;;;8.55;7.68;;;;;;;;;;5086047;28;20024;-78
2021/09/09 07:17:31;;;;;;;9.27;8.32;;;;;;;;;;5083447;28;20027;-81
2021/09/09 07:19:57;;;;;;;9.38;8.48;;;;;;;;;;5089113;28;20108;-81
2021/09/09 07:22:23;;;;;;;13.35;8.73;;;;;;;;;;5090539;28;20072;-81
2021/09/09 07:24:49;;;;;;;9.30;8.32;;;;;;;;;;5087682;28;20032;-80
2021/09/09 07:27:16;;;;;;;9.95;8.50;;;;;;;;;;5086123;28;20123;-81
2021/09/09 07:29:42;;;;;;;8.30;7.50;;;;;;;;;;5091702;28;20388;-81
2021/09/09 07:32:08;;;;;;;9.07;8.27;;;;;;;;;;5070680;28;20020;-80
2021/09/09 07:34:34;;;;;;;9.40;7.85;;;;;;;;;;5086500;28;20024;-80
2021/09/09 07:37:00;;;;;;;8.02;7.32;;;;;;;;;;5085108;28;20130;-81
2021/09/09 07:39:26;;;;;;;8.90;8.15;;;;;;;;;;5088976;28;20032;-71
2021/09/09 07:41:53;;;;;;;8.70;7.90;;;;;;;;;;5092505;28;20019;-72
2021/09/09 07:44:19;;;;;;;8.60;7.80;;;;;;;;;;5068298;28;20412;-82
2021/09/09 07:46:45;;;;;;;8.27;7.57;;;;;;;;;;5091763;28;20030;-78
2021/09/09 07:49:15;;;;;;;8.05;7.43;;;;;;;;;;5089930;28;20038;-82
2021/09/09 07:51:41;;;;;;;9.50;7.93;;;;;;;;;;5086718;28;20095;-81
2021/09/09 07:54:07;;;;;;;8.75;7.85;;;;;;;;;;5092907;28;20032;-72
2021/09/09 07:56:33;;;;;;;8.52;7.72;;;;;;;;;;5093315;28;20024;-71
2021/09/09 07:59:00;;;;;;;9.38;7.90;;;;;;;;;;5093272;28;20038;-78
2021/09/09 08:01:26;;;;;;;8.82;7.93;;;;;;;;;;5090445;28;20032;-69
2021/09/09 08:03:52;;;;;;;8.82;8.00;;;;;;;;;;5091869;28;20036;-81
2021/09/09 08:06:18;;;;;;;8.98;7.13;;;;;;;;;;5090509;28;20019;-80
2021/09/09 08:08:44;;;;;;;8.52;7.70;;;;;;;;;;5092507;28;20031;-79
2021/09/09 08:11:11;;;;;;;8.82;7.93;;;;;;;;;;5089687;28;20459;-71
2021/09/09 08:13:37;;;;;;;9.30;8.35;;;;;;;;;;5089950;28;20517;-73
2021/09/09 08:16:03;;;;;;;9.77;7.45;;;;;;;;;;5090579;28;20020;-69
2021/09/09 08:18:30;;;;;;;9.18;8.38;;;;;;;;;;5090793;28;20372;-72
2021/09/09 08:20:56;;;;;;;9.90;8.07;;;;;;;;;;5089363;28;20028;-80
2021/09/09 08:23:23;;;;;;;8.27;7.47;;;;;;;;;;5090713;28;20415;-81
2021/09/09 08:25:49;;;;;;;9.90;8.57;;;;;;;;;;5093415;28;20480;-75
2021/09/09 08:28:18;;;;;;;8.10;7.30;;;;;;;;;;5074173;28;20463;-79
2021/09/09 08:30:47;;;;;;;9.07;7.70;;;;;;;;;;5090913;28;20023;-76
2021/09/09 08:33:14;;;;;;;8.82;8.07;;;;;;;;;;5089986;28;20616;-75
2021/09/09 08:35:42;;;;;;;9.27;8.45;;;;;;;;;;5088097;28;20409;-81
2021/09/09 08:38:08;;;;;;;8.25;7.55;;;;;;;;;;5088605;28;20042;-73
2021/09/09 08:40:39;;;;;;;9.00;8.13;;;;;;;;;;5086280;28;20456;-81
2021/09/09 08:43:05;;;;;;;8.73;7.32;;;;;;;;;;5088929;28;20057;-77
2021/09/09 08:45:32;;;;;;;10.23;7.85;;;;;;;;;;5089059;28;20563;-76
2021/09/09 08:48:01;;;;;;;8.57;7.88;;;;;;;;;;5085436;28;20394;-70
2021/09/09 08:50:27;;;;;;;8.43;7.63;;;;;;;;;;5089791;28;20054;-70
2021/09/09 08:52:55;;;;;;;8.25;7.55;;;;;;;;;;5084506;28;20026;-79
2021/09/09 08:55:21;;;;;;;8.32;7.53;;;;;;;;;;5091664;28;20035;-73
2021/09/09 08:57:47;;;;;;;9.07;8.27;;;;;;;;;;5090213;28;20054;-69
2021/09/09 09:00:13;;;;;;;9.10;7.07;;;;;;;;;;5093259;28;20022;-70
2021/09/09 09:02:58;;;;;;;9.02;8.05;;;;;;;;;;5089355;28;20024;-74
2021/09/09 09:05:24;;;;;;;8.23;7.38;;;;;;;;;;5089494;28;20050;-70
2021/09/09 09:08:01;;;;;;;8.98;7.68;;;;;;;;;;5091192;28;20016;-79
2021/09/09 09:10:27;;;;;;;8.15;7.32;;;;;;;;;;5087823;28;20070;-71
2021/09/09 09:12:54;;;;;;;9.15;7.80;;;;;;;;;;5093166;28;20023;-70
2021/09/09 09:15:22;;;;;;;8.00;7.20;;;;;;;;;;5091458;28;20024;-71
2021/09/09 09:18:16;;;;;;;7.90;7.10;;;;;;;;;;5087001;28;20036;-76
2021/09/09 09:20:42;;;;;;;7.50;6.70;;;;;;;;;;5088178;28;20039;-78
2021/09/09 09:23:15;;;;;;;7.90;7.20;;;;;;;;;;5088219;28;20030;-73
2021/09/09 09:25:49;;;;;;;7.70;7.00;;;;;;;;;;5074256;28;20031;-79
2021/09/09 09:28:17;;;;;;;9.23;6.80;;;;;;;;;;5092501;28;20027;-78
2021/09/09 09:31:02;;;;;;;7.65;6.75;;;;;;;;;;5082851;28;20016;-75
2021/09/09 09:33:32;;;;;;;7.13;6.47;;;;;;;;;;5089679;28;20134;-75
2021/09/09 09:36:11;;;;;;;8.00;7.20;;;;;;;;;;5090702;27;20734;-72
2021/09/09 09:38:38;;;;;;;9.48;7.18;;;;;;;;;;5095120;28;20024;-76
2021/09/09 09:41:07;;;;;;;7.28;6.63;;;;;;;;;;5087683;28;20077;-75
2021/09/09 09:43:34;;;;;;;10.60;7.40;;;;;;;;;;5091389;28;20066;-73
2021/09/09 09:46:01;;;;;;;8.77;6.97;;;;;;;;;;5087731;28;20111;-74
2021/09/09 09:48:29;;;;;;;7.60;6.35;;;;;;;;;;5091005;28;20023;-71
2021/09/09 09:50:55;;;;;;;8.55;7.80;;;;;;;;;;5094126;28;20184;-70
2021/09/09 09:53:22;;;;;;;8.18;7.45;;;;;;;;;;5087713;28;20062;-74
2021/09/09 09:55:48;;;;;;;8.50;7.72;;;;;;;;;;5087769;28;20024;-80
2021/09/09 09:58:18;;;;;;;8.88;7.60;;;;;;;;;;5090004;28;20020;-77
2021/09/09 10:00:44;;;;;;;8.23;7.50;;;;;;;;;;5091032;28;20031;-75
2021/09/09 10:03:11;;;;;;;7.70;7.05;;;;;;;;;;5085453;28;20439;-74
2021/09/09 10:05:37;;;;;;;8.20;7.40;;;;;;;;;;5091296;28;20130;-74
2021/09/09 10:08:04;;;;;;;8.82;7.65;;;;;;;;;;5089516;28;20020;-79
2021/09/09 10:10:31;;;;;;;8.68;7.90;;;;;;;;;;5090512;28;20507;-75
2021/09/09 10:12:57;;;;;;;9.80;8.68;;;;;;;;;;5089838;28;20049;-80
2021/09/09 10:15:24;;;;;;;8.82;7.93;;;;;;;;;;5087623;28;20034;-81
2021/09/09 10:17:52;;;;;;;8.07;7.25;;;;;;;;;;5090471;28;20122;-82
2021/09/09 10:20:33;;;;;;;8.60;7.80;;;;;;;;;;5072110;28;20048;-70
2021/09/09 10:23:01;;;;;;;8.00;7.30;;;;;;;;;;5088777;28;20028;-74
2021/09/09 10:25:40;;;;;;;9.10;7.82;;;;;;;;;;5075695;28;20020;-75
2021/09/09 10:28:26;;;;;;;8.88;7.75;;;;;;;;;;5092101;27;20109;-71
2021/09/09 10:31:02;;;;;;;11.13;8.07;;;;;;;;;;5097321;27;20086;-68
2021/09/09 10:33:29;;;;;;;9.57;7.75;;;;;;;;;;5094352;28;20023;-79
2021/09/09 10:35:55;;;;;;;8.85;8.05;;;;;;;;;;5094284;27;20020;-70
2021/09/09 10:38:21;;;;;;;9.63;7.63;;;;;;;;;;5096194;28;20035;-74
2021/09/09 10:40:48;;;;;;;10.15;7.32;;;;;;;;;;5097667;28;20028;-76
2021/09/09 10:43:15;;;;;;;8.43;7.05;;;;;;;;;;5093756;28;20024;-76
2021/09/09 10:45:43;;;;;;;7.72;7.03;;;;;;;;;;5089495;28;20023;-79
2021/09/09 10:48:15;;;;;;;7.72;7.03;;;;;;;;;;5082654;28;20077;-71
2021/09/09 10:50:42;;;;;;;8.30;7.50;;;;;;;;;;5088549;28;20020;-69
2021/09/09 10:53:09;;;;;;;9.65;7.78;;;;;;;;;;5084625;28;20034;-72
2021/09/09 10:55:39;;;;;;;12.25;8.48;;;;;;;;;;5091895;27;20884;-74
2021/09/09 10:58:20;;;;;;;10.60;7.45;;;;;;;;;;5084759;28;20057;-74
2021/09/09 11:01:05;;;;;;;10.48;8.02;;;;;;;;;;5089748;28;20032;-75
2021/09/09 11:03:46;;;;;;;8.65;6.97;;;;;;;;;;5089524;28;20028;-78
2021/09/09 11:06:14;;;;;;;11.93;8.05;;;;;;;;;;5096710;28;20103;-76
2021/09/09 11:08:40;;;;;;;8.75;7.28;;;;;;;;;;5090966;28;20082;-68
2021/09/09 11:11:08;;;;;;;8.77;7.88;;;;;;;;;;5092018;28;20048;-72
2021/09/09 11:13:36;;;;;;;8.23;7.53;;;;;;;;;;5092284;28;20046;-74
2021/09/09 11:16:18;;;;;;;8.82;8.02;;;;;;;;;;5092483;28;20045;-72
2021/09/09 11:18:44;;;;;;;;;;;;;;;;;;5093669;28;20035;-71
2021/09/09 11:21:10;;;;;;;10.90;8.45;;;;;;;;;;5089289;28;20058;-69
2021/09/09 11:23:37;;;;;;;7.95;7.15;;;;;;;;;;5092956;28;20027;-75
2021/09/09 11:26:29;;;;;;;9.82;7.30;;;;;;;;;;5085035;28;20035;-74
2021/09/09 11:28:56;;;;;;;8.63;7.75;;;;;;;;;;5081836;28;20028;-79
2021/09/09 11:31:23;;;;;;;8.13;7.43;;;;;;;;;;5091422;28;20036;-78
2021/09/09 11:33:54;;;;;;;7.05;6.43;;;;;;;;;;5087066;28;20033;-76
2021/09/09 11:36:21;;;;;;;8.48;7.78;;;;;;;;;;5090113;28;20039;-78
2021/09/09 11:38:47;;;;;;;7.45;6.80;;;;;;;;;;5088377;28;20024;-70
2021/09/09 11:41:18;;;;;;;7.80;7.10;;;;;;;;;;5068674;28;20384;-75
2021/09/09 11:43:49;;;;;;;8.15;7.38;;;;;;;;;;5091361;28;20088;-70
2021/09/09 11:46:23;;;;;;;8.38;7.60;;;;;;;;;;5085363;28;20012;-78
2021/09/09 11:48:53;;;;;;;8.85;7.95;;;;;;;;;;5091083;28;20035;-78
2021/09/09 11:51:30;;;;;;;8.02;7.32;;;;;;;;;;5088840;28;20050;-77
2021/09/09 11:53:56;;;;;;;9.48;8.18;;;;;;;;;;5089641;28;20034;-79
2021/09/09 11:56:23;;;;;;;7.82;7.22;;;;;;;;;;5085233;28;20065;-70
2021/09/09 11:58:49;;;;;;;8.27;7.47;;;;;;;;;;5090547;28;20036;-74
2021/09/09 12:01:16;;;;;;;8.00;7.30;;;;;;;;;;5086370;28;20016;-74
2021/09/09 12:03:44;;;;;;;7.18;6.57;;;;;;;;;;5089413;28;20614;-74
2021/09/09 12:06:11;;;;;;;7.13;6.53;;;;;;;;;;5087691;28;20016;-79
2021/09/09 12:08:41;;;;;;;8.00;7.30;;;;;;;;;;5089347;28;20482;-79
2021/09/09 12:11:11;;;;;;;7.80;7.10;;;;;;;;;;5089476;28;20049;-71
2021/09/09 12:13:39;;;;;;;7.75;7.05;;;;;;;;;;5086511;28;20028;-76
2021/09/09 12:16:24;;;;;;;6.95;6.30;;;;;;;;;;5068387;28;20023;-79
2021/09/09 12:19:11;;;;;;;9.05;7.28;;;;;;;;;;5085115;28;20039;-80
2021/09/09 12:21:51;;;;;;;7.65;7.05;;;;;;;;;;5086849;28;20020;-74
2021/09/09 12:24:20;;;;;;;8.15;7.45;;;;;;;;;;5083421;28;20047;-70
2021/09/09 12:26:57;;;;;;;7.80;7.13;;;;;;;;;;5088063;28;20011;-70
2021/09/09 12:29:23;;;;;;;8.15;7.45;;;;;;;;;;5091383;28;20435;-71
2021/09/09 12:31:49;;;;;;;8.82;7.57;;;;;;;;;;5083881;28;20426;-79
2021/09/09 12:34:17;;;;;;;8.35;7.65;;;;;;;;;;5093297;28;20349;-71
2021/09/09 12:36:44;;;;;;;8.02;7.32;;;;;;;;;;5091117;28;20032;-69
2021/09/09 12:39:11;;;;;;;8.68;7.68;;;;;;;;;;5089238;28;20510;-78
2021/09/09 12:41:37;;;;;;;8.73;7.93;;;;;;;;;;5094678;28;20152;-70
2021/09/09 12:44:04;;;;;;;8.23;7.47;;;;;;;;;;5088298;28;20056;-73
2021/09/09 12:46:38;;;;;;;7.93;7.20;;;;;;;;;;5095061;28;20802;-72
2021/09/09 12:49:06;;;;;;;9.10;8.20;;;;;;;;;;5093135;28;20368;-77
2021/09/09 12:51:33;;;;;;;8.15;7.40;;;;;;;;;;5091535;28;20081;-70
2021/09/09 12:53:59;;;;;;;9.15;8.25;;;;;;;;;;5091654;28;20023;-69
2021/09/09 12:56:26;;;;;;;8.80;7.60;;;;;;;;;;5090402;28;20032;-69
2021/09/09 12:58:52;;;;;;;8.55;7.75;;;;;;;;;;5093486;28;20035;-75
2021/09/09 13:01:18;;;;;;;7.78;7.07;;;;;;;;;;5090377;28;20044;-70
2021/09/09 13:03:44;;;;;;;7.70;7.00;;;;;;;;;;5094181;28;20024;-69
2021/09/09 13:06:10;;;;;;;8.20;7.50;;;;;;;;;;5091596;28;20027;-70
2021/09/09 13:08:37;;;;;;;8.27;7.47;;;;;;;;;;5092133;28;20028;-76
2021/09/09 13:11:04;;;;;;;8.85;7.60;;;;;;;;;;5090095;28;20054;-72
2021/09/09 13:13:31;;;;;;;8.80;8.10;;;;;;;;;;5090775;28;20039;-72
2021/09/09 13:15:58;;;;;;;8.10;7.38;;;;;;;;;;5094969;28;20024;-76
2021/09/09 13:18:25;;;;;;;7.82;7.13;;;;;;;;;;5071531;28;20051;-73
2021/09/09 13:20:52;;;;;;;9.70;7.95;;;;;;;;;;5089468;28;20058;-76
2021/09/09 13:23:18;;;;;;;8.10;7.32;;;;;;;;;;5075520;28;20059;-71
2021/09/09 13:25:44;;;;;;;7.53;6.93;;;;;;;;;;5086459;28;20407;-76
2021/09/09 13:28:11;;;;;;;8.23;7.53;;;;;;;;;;5090901;28;20046;-74
2021/09/09 13:30:38;;;;;;;7.60;6.90;;;;;;;;;;5093163;28;20039;-75
2021/09/09 13:33:04;;;;;;;7.05;6.40;;;;;;;;;;5092583;28;20027;-70
2021/09/09 13:35:31;;;;;;;7.65;6.85;;;;;;;;;;5090348;28;20441;-73
2021/09/09 13:38:01;;;;;;;8.10;7.43;;;;;;;;;;5088423;28;20030;-71
2021/09/09 13:40:27;;;;;;;8.48;7.60;;;;;;;;;;5090724;28;20332;-73
2021/09/09 13:42:53;;;;;;;7.20;6.60;;;;;;;;;;5087861;28;20039;-77
2021/09/09 13:45:19;;;;;;;8.07;7.38;;;;;;;;;;5093321;28;20545;-76
2021/09/09 13:47:46;;;;;;;7.15;6.55;;;;;;;;;;5088756;28;20024;-71
2021/09/09 13:50:12;;;;;;;7.85;7.07;;;;;;;;;;5091788;28;20032;-76
2021/09/09 13:52:39;;;;;;;7.25;6.55;;;;;;;;;;5089191;28;20485;-73
2021/09/09 13:55:06;;;;;;;7.75;7.05;;;;;;;;;;5091479;28;20051;-71
2021/09/09 13:57:32;;;;;;;7.68;6.97;;;;;;;;;;5090534;28;20023;-76
2021/09/09 13:59:58;;;;;;;8.80;7.88;;;;;;;;;;5089731;28;20046;-75
2021/09/09 14:02:24;;;;;;;8.65;7.85;;;;;;;;;;5090854;28;20092;-76
2021/09/09 14:04:50;;;;;;;10.07;9.18;;;;;;;;;;5071370;28;20044;-74
2021/09/09 14:07:17;;;;;;;9.43;8.52;;;;;;;;;;5090640;28;21021;-75
2021/09/09 14:09:43;;;;;;;9.60;6.88;;;;;;;;;;5093204;28;20024;-74
2021/09/09 14:12:09;;;;;;;8.10;7.30;;;;;;;;;;5087673;28;20073;-72
2021/09/09 14:14:35;;;;;;;8.95;7.22;;;;;;;;;;5090272;28;20475;-75
2021/09/09 14:17:01;;;;;;;7.82;7.13;;;;;;;;;;5092113;28;20024;-71
2021/09/09 14:19:27;;;;;;;7.72;7.03;;;;;;;;;;5090043;28;20038;-70
2021/09/09 14:21:54;;;;;;;7.72;7.03;;;;;;;;;;5089024;28;20016;-71
2021/09/09 14:24:20;;;;;;;7.90;7.20;;;;;;;;;;5088401;28;20516;-75
2021/09/09 14:26:46;;;;;;;7.13;6.47;;;;;;;;;;5090422;28;20077;-72
2021/09/09 14:29:14;;;;;;;8.43;7.72;;;;;;;;;;5087867;28;20024;-71
2021/09/09 14:31:41;;;;;;;7.63;6.82;;;;;;;;;;5088770;28;20110;-74
2021/09/09 14:34:08;;;;;;;7.55;6.85;;;;;;;;;;5087332;28;20031;-72
2021/09/09 14:36:34;;;;;;;7.30;6.70;;;;;;;;;;5092482;28;20023;-74
2021/09/09 14:39:00;;;;;;;7.75;7.07;;;;;;;;;;5085271;28;20036;-75